Time;durP1;ratioP1;P1;durP2;ratioP2;P2;SDS_P1;SDS_P2;PMS_P1;PMS_P2;Temp;Humidity;BMP_temperature;BMP_pressure;BME280_temperature;BME280_humidity;BME280_pressure;Samples;Min_cycle;Max_cycle;Signal;HPM_P1;HPM_P2
2023/12/06 00:01:27;;;;;;;11.53;6.47;;;2.80;99.90;;;;;;5076170;28;20201;-80
2023/12/06 00:03:54;;;;;;;12.40;7.30;;;2.80;99.90;;;;;;5072955;28;20556;-80
2023/12/06 00:06:22;;;;;;;8.00;5.60;;;2.70;99.90;;;;;;5076164;28;20205;-80
2023/12/06 00:08:48;;;;;;;10.73;6.90;;;2.70;99.90;;;;;;5061559;28;20595;-80
2023/12/06 00:11:15;;;;;;;11.17;5.97;;;2.80;99.90;;;;;;5065150;28;20233;-80
2023/12/06 00:13:42;;;;;;;12.20;7.23;;;2.70;99.90;;;;;;5075881;28;20574;-80
2023/12/06 00:16:09;;;;;;;7.67;5.37;;;2.70;99.90;;;;;;5075340;28;20566;-80
2023/12/06 00:18:35;;;;;;;9.37;6.27;;;2.70;99.90;;;;;;5066437;28;20214;-80
2023/12/06 00:21:02;;;;;;;9.53;5.53;;;2.70;99.90;;;;;;5075342;28;20558;-81
2023/12/06 00:23:31;;;;;;;13.03;6.93;;;2.60;99.90;;;;;;5074479;28;20214;-80
2023/12/06 00:25:57;;;;;;;11.43;6.90;;;2.60;99.90;;;;;;5065822;28;20206;-80
2023/12/06 00:28:24;;;;;;;10.83;7.07;;;2.70;99.90;;;;;;5065214;28;20202;-80
2023/12/06 00:30:51;;;;;;;10.43;6.20;;;2.50;99.90;;;;;;5068527;28;20305;-80
2023/12/06 00:33:18;;;;;;;10.10;6.30;;;2.50;99.90;;;;;;5075974;28;20229;-80
2023/12/06 00:35:45;;;;;;;11.47;6.67;;;2.50;99.90;;;;;;5076163;28;20290;-80
2023/12/06 00:38:12;;;;;;;10.50;6.27;;;2.50;99.90;;;;;;5063534;28;20217;-80
2023/12/06 00:40:40;;;;;;;8.50;5.93;;;2.50;99.90;;;;;;5073936;28;20218;-80
2023/12/06 00:43:07;;;;;;;10.47;6.07;;;2.40;99.90;;;;;;5076426;28;20653;-80
2023/12/06 00:45:34;;;;;;;9.27;6.27;;;2.40;99.90;;;;;;5076069;28;20222;-80
2023/12/06 00:48:01;;;;;;;10.40;6.27;;;2.40;99.90;;;;;;5076583;28;20209;-80
2023/12/06 00:50:28;;;;;;;9.27;5.77;;;2.70;99.90;;;;;;5076226;28;20230;-80
2023/12/06 00:52:55;;;;;;;10.13;6.43;;;2.50;99.90;;;;;;5077456;28;20202;-80
2023/12/06 00:55:22;;;;;;;8.27;5.87;;;2.40;99.90;;;;;;5078011;28;20602;-80
2023/12/06 00:57:50;;;;;;;9.87;6.33;;;2.40;99.90;;;;;;5079546;28;20212;-80
2023/12/06 01:00:17;;;;;;;10.13;6.30;;;2.30;99.90;;;;;;5079642;28;20232;-80
2023/12/06 01:02:44;;;;;;;8.07;5.00;;;2.40;99.90;;;;;;5079076;28;20208;-80
2023/12/06 01:05:11;;;;;;;9.27;5.43;;;2.40;99.90;;;;;;5078679;28;20289;-80
2023/12/06 01:07:38;;;;;;;8.63;5.70;;;2.40;99.90;;;;;;5079118;28;20218;-81
2023/12/06 01:10:06;;;;;;;7.67;5.40;;;2.40;99.90;;;;;;5075870;28;20213;-81
2023/12/06 01:12:35;;;;;;;8.00;5.10;;;2.30;99.90;;;;;;5079412;28;20201;-80
2023/12/06 01:15:04;;;;;;;5.73;4.63;;;2.30;99.90;;;;;;5079619;28;20204;-80
2023/12/06 01:17:32;;;;;;;7.63;5.30;;;2.30;99.90;;;;;;5079510;28;20616;-80
2023/12/06 01:19:58;;;;;;;7.97;5.33;;;2.30;99.90;;;;;;5078969;28;20267;-80
2023/12/06 01:22:25;;;;;;;7.00;4.90;;;2.30;99.90;;;;;;5080046;28;20214;-80
2023/12/06 01:24:57;;;;;;;6.53;4.60;;;2.30;99.90;;;;;;5074576;28;20195;-80
2023/12/06 01:27:24;;;;;;;7.73;5.40;;;2.30;99.90;;;;;;5074501;28;20199;-80
2023/12/06 01:29:51;;;;;;;7.97;5.40;;;2.50;99.90;;;;;;5078745;28;20220;-80
2023/12/06 01:32:19;;;;;;;9.73;6.70;;;2.50;99.90;;;;;;5078367;28;20684;-80
2023/12/06 01:34:47;;;;;;;9.50;6.13;;;2.50;99.90;;;;;;5079240;28;20194;-80
2023/12/06 01:37:13;;;;;;;8.53;5.27;;;2.50;99.90;;;;;;5078379;28;20198;-80
2023/12/06 01:39:40;;;;;;;8.23;5.47;;;2.50;99.90;;;;;;5077980;28;20224;-80
2023/12/06 01:42:07;;;;;;;9.27;5.23;;;2.50;99.90;;;;;;5078651;28;20194;-81
2023/12/06 01:44:34;;;;;;;6.70;4.67;;;2.50;99.90;;;;;;5077710;28;20201;-80
2023/12/06 01:47:02;;;;;;;6.20;4.37;;;2.50;99.90;;;;;;5078298;28;20198;-80
2023/12/06 01:49:31;;;;;;;4.47;3.70;;;2.50;99.90;;;;;;5077392;28;20252;-81
2023/12/06 01:51:58;;;;;;;4.70;3.43;;;2.50;99.90;;;;;;5077181;28;20218;-80
2023/12/06 01:54:26;;;;;;;3.53;2.97;;;2.40;99.90;;;;;;5076656;28;20205;-81
2023/12/06 01:56:54;;;;;;;3.00;2.60;;;2.50;99.90;;;;;;5076859;28;20214;-80
2023/12/06 01:59:21;;;;;;;4.30;3.13;;;2.40;99.90;;;;;;5076129;28;20224;-81
2023/12/06 02:01:47;;;;;;;4.23;3.10;;;2.40;99.90;;;;;;5077003;28;20198;-80
2023/12/06 02:04:15;;;;;;;3.87;3.03;;;2.40;99.90;;;;;;5076109;28;20202;-80
2023/12/06 02:06:43;;;;;;;4.03;3.03;;;2.40;99.90;;;;;;5072862;28;20203;-80
2023/12/06 02:09:12;;;;;;;5.50;3.47;;;2.50;99.90;;;;;;5077319;28;20226;-80
2023/12/06 02:11:39;;;;;;;5.10;3.30;;;2.40;99.90;;;;;;5077323;28;20237;-80
2023/12/06 02:14:05;;;;;;;5.77;3.50;;;2.40;99.90;;;;;;5073807;28;20206;-80
2023/12/06 02:16:32;;;;;;;3.83;2.90;;;2.40;99.90;;;;;;5069783;28;20206;-80
2023/12/06 02:18:59;;;;;;;5.17;3.47;;;2.40;99.90;;;;;;5076804;28;20279;-80
2023/12/06 02:21:26;;;;;;;6.30;3.93;;;2.40;99.90;;;;;;5077312;28;20209;-81
2023/12/06 02:23:58;;;;;;;5.77;3.63;;;2.40;99.90;;;;;;5066654;28;20199;-80
2023/12/06 02:26:26;;;;;;;5.90;4.17;;;2.40;99.90;;;;;;5071894;28;20292;-80
2023/12/06 02:28:54;;;;;;;6.27;4.10;;;2.40;99.90;;;;;;5075441;28;20210;-80
2023/12/06 02:31:21;;;;;;;6.47;4.00;;;2.40;99.90;;;;;;5076214;28;20215;-80
2023/12/06 02:33:52;;;;;;;4.73;3.47;;;2.40;99.90;;;;;;5073817;28;20216;-80
2023/12/06 02:36:21;;;;;;;6.60;4.10;;;2.40;1.00;;;;;;5062107;28;20202;-80
2023/12/06 02:38:48;;;;;;;6.17;4.13;;;2.40;1.00;;;;;;5075707;28;20290;-81
2023/12/06 02:41:17;;;;;;;5.67;4.07;;;2.40;1.00;;;;;;5067230;28;20194;-81
2023/12/06 02:43:46;;;;;;;6.43;4.57;;;2.40;99.90;;;;;;5066967;28;20633;-81
2023/12/06 02:46:13;;;;;;;5.97;4.00;;;2.40;1.00;;;;;;5068147;28;20294;-80
2023/12/06 02:48:41;;;;;;;6.37;3.80;;;2.40;1.00;;;;;;5067832;28;20210;-80
2023/12/06 02:51:08;;;;;;;6.13;4.27;;;2.40;1.00;;;;;;5073653;28;20576;-80
2023/12/06 02:53:34;;;;;;;6.73;4.47;;;2.40;1.00;;;;;;5064382;28;20203;-80
2023/12/06 02:56:01;;;;;;;6.20;4.13;;;2.40;1.00;;;;;;5069488;28;20206;-80
2023/12/06 02:58:28;;;;;;;7.67;4.30;;;2.40;1.00;;;;;;5065026;28;20205;-80
2023/12/06 03:00:56;;;;;;;7.17;4.53;;;2.40;1.00;;;;;;5073651;28;20559;-80
2023/12/06 03:03:23;;;;;;;6.23;4.33;;;2.30;1.00;;;;;;5067416;28;20864;-80
2023/12/06 03:05:50;;;;;;;6.80;4.43;;;2.30;1.00;;;;;;5067268;28;20690;-80
2023/12/06 03:08:16;;;;;;;7.20;4.40;;;2.30;1.00;;;;;;5063915;28;20198;-80
2023/12/06 03:10:43;;;;;;;7.80;4.73;;;2.30;96.00;;;;;;5070970;28;20218;-80
2023/12/06 03:13:10;;;;;;;7.37;4.50;;;2.20;99.90;;;;;;5067504;28;20194;-80
2023/12/06 03:15:37;;;;;;;7.13;4.57;;;2.20;1.00;;;;;;5069208;28;20202;-80
2023/12/06 03:18:06;;;;;;;7.93;4.80;;;2.20;1.00;;;;;;5074298;28;20644;-80
2023/12/06 03:20:33;;;;;;;7.63;4.63;;;2.20;1.00;;;;;;5069246;28;20573;-80
2023/12/06 03:23:00;;;;;;;7.13;4.50;;;2.20;1.00;;;;;;5064903;28;20206;-80
2023/12/06 03:25:27;;;;;;;8.03;4.90;;;2.20;1.00;;;;;;5069973;28;20211;-80
2023/12/06 03:27:54;;;;;;;8.13;5.17;;;2.10;1.00;;;;;;5066681;28;20213;-81
2023/12/06 03:30:23;;;;;;;6.83;4.63;;;2.20;99.90;;;;;;5072128;28;20218;-81
2023/12/06 03:32:50;;;;;;;7.33;4.90;;;2.10;99.90;;;;;;5071719;28;20317;-81
2023/12/06 03:35:18;;;;;;;7.40;4.87;;;2.20;99.90;;;;;;5071491;28;20202;-80
2023/12/06 03:37:45;;;;;;;7.40;4.80;;;2.10;1.00;;;;;;5070936;28;20202;-80
2023/12/06 03:40:12;;;;;;;8.63;4.90;;;2.10;1.00;;;;;;5072907;28;20560;-81
2023/12/06 03:42:39;;;;;;;11.60;6.17;;;2.10;1.00;;;;;;5072908;28;20652;-80
2023/12/06 03:45:07;;;;;;;8.03;4.83;;;2.10;1.00;;;;;;5058006;28;20210;-80
2023/12/06 03:47:34;;;;;;;8.57;5.20;;;2.10;1.00;;;;;;5071789;28;20205;-80
2023/12/06 03:50:00;;;;;;;8.97;5.47;;;2.10;48.50;;;;;;5062046;28;20230;-81
2023/12/06 03:52:29;;;;;;;9.43;5.30;;;2.10;1.00;;;;;;5061833;28;20234;-80
2023/12/06 03:54:56;;;;;;;9.13;5.67;;;2.10;1.00;;;;;;5068723;28;20216;-80
2023/12/06 03:57:23;;;;;;;9.73;5.60;;;2.10;1.00;;;;;;5058524;28;20203;-80
2023/12/06 03:59:50;;;;;;;9.53;5.33;;;2.10;1.00;;;;;;5059676;28;20225;-79
2023/12/06 04:02:17;;;;;;;12.07;5.60;;;2.10;99.90;;;;;;5067984;28;20209;-80
2023/12/06 04:04:44;;;;;;;9.73;5.50;;;2.10;99.90;;;;;;5063518;28;20198;-80
2023/12/06 04:07:11;;;;;;;8.70;5.27;;;2.10;99.90;;;;;;5064585;28;20661;-80
2023/12/06 04:09:40;;;;;;;9.83;5.67;;;2.10;99.90;;;;;;5064118;28;20222;-81
2023/12/06 04:12:07;;;;;;;9.63;6.17;;;2.10;99.90;;;;;;5070522;28;20232;-80
2023/12/06 04:14:34;;;;;;;9.03;5.73;;;2.10;99.90;;;;;;5069519;28;20569;-81
2023/12/06 04:17:01;;;;;;;13.83;7.17;;;2.10;99.90;;;;;;5069702;28;20203;-81
2023/12/06 04:19:27;;;;;;;10.90;6.60;;;2.00;99.90;;;;;;5066003;28;20700;-82
2023/12/06 04:21:54;;;;;;;12.00;6.70;;;2.10;99.90;;;;;;5070442;28;20202;-81
2023/12/06 04:24:21;;;;;;;11.97;6.70;;;2.00;99.90;;;;;;5070683;28;20198;-81
2023/12/06 04:26:49;;;;;;;12.17;7.00;;;2.00;99.90;;;;;;5071198;28;20203;-82
2023/12/06 04:29:16;;;;;;;16.23;8.63;;;2.10;99.90;;;;;;5071685;28;20257;-81
2023/12/06 04:31:42;;;;;;;14.70;7.27;;;2.00;1.00;;;;;;5069910;28;20611;-81
2023/12/06 04:34:10;;;;;;;11.83;6.73;;;2.00;1.00;;;;;;5070427;28;20209;-80
2023/12/06 04:36:37;;;;;;;12.30;6.83;;;2.00;1.00;;;;;;5071997;28;20202;-80
2023/12/06 04:39:04;;;;;;;12.13;7.27;;;2.00;1.00;;;;;;5078132;28;20221;-81
2023/12/06 04:41:30;;;;;;;12.33;7.03;;;1.90;1.00;;;;;;5080791;28;20194;-80
2023/12/06 04:43:58;;;;;;;11.93;7.20;;;1.90;1.00;;;;;;5080274;28;20220;-80
2023/12/06 04:46:25;;;;;;;12.37;7.17;;;1.90;1.00;;;;;;5067542;28;20583;-81
2023/12/06 04:48:52;;;;;;;14.23;7.90;;;1.90;1.00;;;;;;5077920;28;20232;-80
2023/12/06 04:51:19;;;;;;;14.43;7.77;;;1.80;1.00;;;;;;5073886;28;20206;-80
2023/12/06 04:53:45;;;;;;;13.30;7.60;;;1.80;31.20;;;;;;5075456;28;20218;-80
2023/12/06 04:56:13;;;;;;;14.07;7.27;;;1.80;99.90;;;;;;5071164;28;20209;-80
2023/12/06 04:58:39;;;;;;;13.87;7.50;;;1.80;99.90;;;;;;5070561;28;20210;-80
2023/12/06 05:01:08;;;;;;;13.70;8.77;;;1.80;99.90;;;;;;5073158;28;20209;-81
2023/12/06 05:03:35;;;;;;;14.70;8.47;;;1.70;99.90;;;;;;5073826;28;20224;-81
2023/12/06 05:06:02;;;;;;;15.67;8.90;;;1.70;99.90;;;;;;5074796;28;20204;-81
2023/12/06 05:08:30;;;;;;;17.37;8.27;;;1.80;99.90;;;;;;5065113;28;20294;-81
2023/12/06 05:10:56;;;;;;;15.43;8.33;;;1.70;99.90;;;;;;5068355;28;20201;-80
2023/12/06 05:13:23;;;;;;;13.97;7.90;;;1.70;99.90;;;;;;5070615;28;20614;-80
2023/12/06 05:15:50;;;;;;;15.50;7.83;;;1.70;99.90;;;;;;5072915;28;20199;-80
2023/12/06 05:18:18;;;;;;;14.27;7.53;;;1.70;99.90;;;;;;5081330;28;20212;-81
2023/12/06 05:20:45;;;;;;;13.73;7.43;;;1.60;99.90;;;;;;5070537;28;20219;-80
2023/12/06 05:23:12;;;;;;;13.30;7.30;;;1.60;99.90;;;;;;5074811;28;20199;-80
2023/12/06 05:25:38;;;;;;;14.53;7.80;;;1.50;99.90;;;;;;5068412;28;20210;-80
2023/12/06 05:28:05;;;;;;;13.67;7.77;;;1.60;99.90;;;;;;5074003;28;20198;-80
2023/12/06 05:30:32;;;;;;;12.77;7.33;;;1.60;99.90;;;;;;5080460;28;20232;-80
2023/12/06 05:32:59;;;;;;;13.07;7.27;;;1.60;99.90;;;;;;5076613;28;20580;-81
2023/12/06 05:35:27;;;;;;;12.27;7.60;;;1.50;99.90;;;;;;5078632;28;20560;-81
2023/12/06 05:37:54;;;;;;;12.97;8.17;;;1.50;99.90;;;;;;5080307;28;20208;-81
2023/12/06 05:40:21;;;;;;;14.37;7.47;;;1.50;99.90;;;;;;5080524;28;20232;-80
2023/12/06 05:42:47;;;;;;;15.40;8.70;;;1.50;99.90;;;;;;5076638;28;20190;-80
2023/12/06 05:45:15;;;;;;;13.27;7.30;;;1.50;99.90;;;;;;5077836;28;20661;-81
2023/12/06 05:47:42;;;;;;;13.77;7.60;;;1.40;99.90;;;;;;5077706;28;20244;-81
2023/12/06 05:50:10;;;;;;;14.07;7.53;;;1.50;99.90;;;;;;5079204;28;20309;-80
2023/12/06 05:52:38;;;;;;;14.70;8.30;;;1.50;99.90;;;;;;5072869;28;20214;-81
2023/12/06 05:55:06;;;;;;;14.60;7.77;;;1.50;99.90;;;;;;5074355;28;20201;-81
2023/12/06 05:57:33;;;;;;;15.23;8.47;;;1.60;99.90;;;;;;5074062;28;20194;-81
2023/12/06 05:59:59;;;;;;;15.77;8.07;;;1.60;99.90;;;;;;5065150;28;20761;-80
2023/12/06 06:02:26;;;;;;;15.80;8.10;;;1.60;99.90;;;;;;5064345;28;20548;-80
2023/12/06 06:04:53;;;;;;;14.37;9.13;;;1.60;99.90;;;;;;5069555;28;20199;-80
2023/12/06 06:07:20;;;;;;;15.67;8.47;;;1.60;99.90;;;;;;5067469;28;20198;-80
2023/12/06 06:09:48;;;;;;;15.77;7.93;;;1.60;99.90;;;;;;5074607;28;20218;-80
2023/12/06 06:12:15;;;;;;;12.53;7.90;;;1.60;99.90;;;;;;5070539;28;20245;-81
2023/12/06 06:14:42;;;;;;;14.93;8.13;;;1.60;99.90;;;;;;5067357;28;20203;-81
2023/12/06 06:17:08;;;;;;;14.90;8.63;;;1.60;99.90;;;;;;5069448;28;20199;-81
2023/12/06 06:19:36;;;;;;;13.23;8.00;;;1.60;99.90;;;;;;5071418;28;20218;-81
2023/12/06 06:22:02;;;;;;;14.47;8.50;;;1.50;99.90;;;;;;5071569;28;20237;-80
2023/12/06 06:24:29;;;;;;;14.63;8.23;;;1.60;99.90;;;;;;5076077;28;20202;-80
2023/12/06 06:26:58;;;;;;;13.30;8.13;;;1.60;99.90;;;;;;5075401;28;20569;-80
2023/12/06 06:29:24;;;;;;;16.77;9.20;;;1.50;99.90;;;;;;5076734;28;20225;-80
2023/12/06 06:31:51;;;;;;;13.70;8.70;;;1.60;99.90;;;;;;5074213;28;20198;-81
2023/12/06 06:34:18;;;;;;;17.00;9.47;;;1.60;99.90;;;;;;5073320;28;20202;-81
2023/12/06 06:36:47;;;;;;;14.87;8.97;;;1.60;99.90;;;;;;5073187;28;20706;-81
2023/12/06 06:39:13;;;;;;;18.43;9.30;;;1.60;99.90;;;;;;5075686;28;20605;-81
2023/12/06 06:41:41;;;;;;;15.87;10.00;;;1.60;99.90;;;;;;5075416;28;20202;-80
2023/12/06 06:44:09;;;;;;;15.00;9.00;;;1.60;99.90;;;;;;5072951;28;20203;-81
2023/12/06 06:46:36;;;;;;;15.27;10.20;;;1.60;99.90;;;;;;5073783;28;20198;-81
2023/12/06 06:49:02;;;;;;;17.47;8.97;;;1.60;99.90;;;;;;5072819;28;20222;-80
2023/12/06 06:51:33;;;;;;;14.87;8.07;;;1.60;99.90;;;;;;5071625;28;20569;-81
2023/12/06 06:54:00;;;;;;;15.63;8.33;;;1.60;99.90;;;;;;5073599;28;20221;-80
2023/12/06 06:56:27;;;;;;;16.07;8.83;;;1.60;99.90;;;;;;5069633;28;20204;-80
2023/12/06 06:58:53;;;;;;;16.13;8.83;;;1.60;99.90;;;;;;5071253;28;20219;-80
2023/12/06 07:01:22;;;;;;;16.70;9.20;;;1.60;99.90;;;;;;5073679;28;20198;-80
2023/12/06 07:03:48;;;;;;;15.40;8.70;;;1.60;99.90;;;;;;5064926;28;20195;-80
2023/12/06 07:06:15;;;;;;;16.50;8.70;;;1.60;52.30;;;;;;5069931;28;20198;-80
2023/12/06 07:08:42;;;;;;;15.50;8.53;;;1.70;1.00;;;;;;5066103;28;20199;-80
2023/12/06 07:11:09;;;;;;;16.83;9.03;;;1.70;1.00;;;;;;5069863;28;20206;-80
2023/12/06 07:13:37;;;;;;;17.83;9.43;;;1.70;1.00;;;;;;5069197;28;20221;-80
2023/12/06 07:16:05;;;;;;;15.23;9.23;;;1.70;1.00;;;;;;5063828;28;20210;-80
2023/12/06 07:18:33;;;;;;;16.10;8.63;;;1.70;99.90;;;;;;5070729;28;20210;-80
2023/12/06 07:21:00;;;;;;;15.10;8.30;;;1.70;99.90;;;;;;5061937;28;20645;-80
2023/12/06 07:23:27;;;;;;;16.33;8.43;;;1.70;99.90;;;;;;5067682;28;20221;-81
2023/12/06 07:25:54;;;;;;;15.60;8.57;;;1.70;99.90;;;;;;5069851;28;20244;-80
2023/12/06 07:28:21;;;;;;;15.77;8.13;;;1.70;99.90;;;;;;5063857;28;20210;-80
2023/12/06 07:30:48;;;;;;;13.93;8.17;;;1.70;77.30;;;;;;5064472;28;20214;-80
2023/12/06 07:33:15;;;;;;;14.97;8.63;;;1.70;99.90;;;;;;5072982;28;20222;-80
2023/12/06 07:35:43;;;;;;;15.47;8.20;;;1.70;99.90;;;;;;5070108;28;20212;-80
2023/12/06 07:38:11;;;;;;;13.97;7.67;;;1.70;99.90;;;;;;5072529;28;20653;-80
2023/12/06 07:40:37;;;;;;;13.63;7.27;;;1.70;1.00;;;;;;5072394;28;20600;-80
2023/12/06 07:43:04;;;;;;;14.03;8.17;;;1.70;1.00;;;;;;5067009;28;20654;-80
2023/12/06 07:45:31;;;;;;;15.10;8.60;;;1.70;1.00;;;;;;5062694;28;20409;-80
2023/12/06 07:47:58;;;;;;;13.37;7.70;;;1.70;1.00;;;;;;5070887;28;20194;-80
2023/12/06 07:50:25;;;;;;;13.93;8.63;;;1.70;1.00;;;;;;5064518;28;20253;-80
2023/12/06 07:52:53;;;;;;;15.27;8.13;;;1.70;1.00;;;;;;5070010;28;20233;-80
2023/12/06 07:55:21;;;;;;;15.10;8.33;;;1.70;20.50;;;;;;5071806;28;20662;-80
2023/12/06 07:57:48;;;;;;;13.80;7.57;;;1.70;99.90;;;;;;5070640;28;20194;-80
2023/12/06 08:00:18;;;;;;;14.20;8.13;;;1.60;99.90;;;;;;5068080;28;20700;-80
2023/12/06 08:02:44;;;;;;;13.73;8.13;;;1.60;99.90;;;;;;5070258;28;20194;-80
2023/12/06 08:05:11;;;;;;;15.63;8.50;;;1.70;99.90;;;;;;5074877;28;20205;-80
2023/12/06 08:07:38;;;;;;;15.27;9.43;;;1.70;99.90;;;;;;5064968;28;20199;-80
2023/12/06 08:10:10;;;;;;;14.03;8.40;;;1.70;99.90;;;;;;5062783;28;20225;-80
2023/12/06 08:12:38;;;;;;;14.97;8.13;;;1.70;19.90;;;;;;5068296;28;20276;-80
2023/12/06 08:15:06;;;;;;;13.60;8.27;;;1.70;1.00;;;;;;5070385;28;20652;-80
2023/12/06 08:17:32;;;;;;;16.20;9.47;;;1.80;1.00;;;;;;5071969;28;20225;-80
2023/12/06 08:19:59;;;;;;;15.87;8.70;;;1.80;1.00;;;;;;5065390;28;20225;-80
2023/12/06 08:22:28;;;;;;;16.70;8.50;;;1.80;1.00;;;;;;5068794;28;20195;-80
2023/12/06 08:24:57;;;;;;;15.27;9.63;;;1.80;1.00;;;;;;5069634;28;20194;-80
2023/12/06 08:27:27;;;;;;;15.73;8.47;;;1.80;99.90;;;;;;5071374;28;20215;-80
2023/12/06 08:29:54;;;;;;;17.17;9.87;;;1.80;1.00;;;;;;5065972;28;20229;-80
2023/12/06 08:32:21;;;;;;;15.77;8.73;;;1.80;1.00;;;;;;5076322;28;20198;-80
2023/12/06 08:34:48;;;;;;;14.67;8.53;;;1.80;1.00;;;;;;5076376;28;20195;-80
2023/12/06 08:37:15;;;;;;;15.03;9.30;;;1.80;1.00;;;;;;5071783;28;20455;-80
2023/12/06 08:39:43;;;;;;;14.83;9.17;;;1.80;1.00;;;;;;5073556;28;20249;-80
2023/12/06 08:42:10;;;;;;;16.33;9.83;;;1.80;1.00;;;;;;5075425;28;20209;-80
2023/12/06 08:44:38;;;;;;;15.80;8.27;;;1.70;1.00;;;;;;5074108;28;20281;-80
2023/12/06 08:47:05;;;;;;;18.37;9.43;;;1.80;1.00;;;;;;5074352;28;20577;-79
2023/12/06 08:49:32;;;;;;;18.40;9.97;;;1.80;1.00;;;;;;5070978;28;20230;-80
2023/12/06 08:51:59;;;;;;;17.07;8.90;;;1.80;1.00;;;;;;5071743;28;20198;-80
2023/12/06 08:54:26;;;;;;;17.27;9.30;;;1.80;1.00;;;;;;5071237;28;20221;-80
2023/12/06 08:56:52;;;;;;;20.37;10.17;;;1.80;1.00;;;;;;5073768;28;20209;-80
2023/12/06 08:59:19;;;;;;;21.27;10.80;;;1.80;99.80;;;;;;5071699;28;20218;-80
2023/12/06 09:01:47;;;;;;;20.13;10.43;;;1.80;99.90;;;;;;5075392;28;20664;-80
2023/12/06 09:04:15;;;;;;;19.83;9.83;;;1.80;1.00;;;;;;5072948;28;20198;-80
2023/12/06 09:06:41;;;;;;;18.73;10.03;;;1.80;99.90;;;;;;5074214;28;20206;-80
2023/12/06 09:09:09;;;;;;;22.63;11.10;;;1.80;99.90;;;;;;5071781;28;20222;-80
2023/12/06 09:11:35;;;;;;;21.63;11.03;;;1.80;99.90;;;;;;5074591;28;20289;-80
2023/12/06 09:14:02;;;;;;;20.97;11.30;;;1.80;99.90;;;;;;5067291;28;20230;-80
2023/12/06 09:16:29;;;;;;;20.50;10.97;;;1.80;1.00;;;;;;5073408;28;20203;-80
2023/12/06 09:18:59;;;;;;;22.10;12.83;;;1.80;1.00;;;;;;5064749;28;20219;-79
2023/12/06 09:21:27;;;;;;;22.00;12.43;;;1.80;1.00;;;;;;5065114;28;20218;-80
2023/12/06 09:23:54;;;;;;;23.80;11.97;;;1.80;1.00;;;;;;5062716;28;20195;-79
2023/12/06 09:26:21;;;;;;;23.73;11.73;;;1.70;24.60;;;;;;5072944;28;20229;-80
2023/12/06 09:28:47;;;;;;;21.23;11.20;;;1.70;1.00;;;;;;5063929;28;20559;-80
2023/12/06 09:31:14;;;;;;;22.73;11.50;;;1.60;99.90;;;;;;5070967;28;20255;-80
2023/12/06 09:33:43;;;;;;;23.73;11.90;;;1.60;1.00;;;;;;5064811;28;20215;-80
2023/12/06 09:36:11;;;;;;;20.90;11.43;;;1.60;1.00;;;;;;5064052;28;20202;-79
2023/12/06 09:38:38;;;;;;;20.07;11.70;;;1.60;1.00;;;;;;5068875;28;20260;-80
2023/12/06 09:41:07;;;;;;;22.93;13.13;;;1.60;1.00;;;;;;5063165;28;20195;-80
2023/12/06 09:43:36;;;;;;;21.47;11.17;;;1.50;42.00;;;;;;5073006;28;20203;-80
2023/12/06 09:46:04;;;;;;;23.70;12.03;;;1.60;99.90;;;;;;5072317;28;20301;-80
2023/12/06 09:48:30;;;;;;;22.50;12.00;;;1.50;99.90;;;;;;5071013;28;20214;-80
2023/12/06 09:50:57;;;;;;;22.63;11.67;;;1.50;99.90;;;;;;5070359;28;20206;-81
2023/12/06 09:53:25;;;;;;;21.53;12.17;;;1.50;99.90;;;;;;5068760;28;20219;-80
2023/12/06 09:55:52;;;;;;;22.70;12.47;;;1.60;99.90;;;;;;5074616;28;20572;-80
2023/12/06 09:58:19;;;;;;;23.17;12.17;;;1.60;99.90;;;;;;5069612;28;20776;-80
2023/12/06 10:00:46;;;;;;;23.33;11.83;;;1.60;99.90;;;;;;5075591;28;20250;-80
2023/12/06 10:03:15;;;;;;;21.97;11.83;;;1.60;99.90;;;;;;5071252;28;20206;-80
2023/12/06 10:05:53;;;;;;;23.03;11.87;;;1.60;99.90;;;;;;5074416;28;20198;-80
2023/12/06 10:08:20;;;;;;;24.57;12.53;;;1.50;99.90;;;;;;5073251;28;20202;-80
2023/12/06 10:10:49;;;;;;;22.07;12.30;;;1.50;99.90;;;;;;5074225;28;20218;-80
2023/12/06 10:13:15;;;;;;;23.20;11.90;;;1.50;99.90;;;;;;5074305;28;20218;-80
2023/12/06 10:15:43;;;;;;;23.50;12.00;;;1.50;99.90;;;;;;5075615;28;20564;-80
2023/12/06 10:18:11;;;;;;;24.60;12.43;;;1.50;99.90;;;;;;5071394;28;20261;-79
2023/12/06 10:20:38;;;;;;;25.13;12.83;;;1.50;99.90;;;;;;5075402;28;20260;-80
2023/12/06 10:23:04;;;;;;;24.83;13.67;;;1.50;99.90;;;;;;5073285;28;20591;-79
2023/12/06 10:25:38;;;;;;;26.13;14.07;;;1.50;99.90;;;;;;5058778;28;20586;-80
2023/12/06 10:28:07;;;;;;;25.97;13.30;;;1.50;99.90;;;;;;5066148;28;20202;-79
2023/12/06 10:30:35;;;;;;;26.97;14.60;;;1.50;99.90;;;;;;5066012;28;20286;-80
2023/12/06 10:33:02;;;;;;;26.13;14.17;;;1.50;99.90;;;;;;5069800;28;20677;-79
2023/12/06 10:35:30;;;;;;;27.30;14.07;;;1.50;99.90;;;;;;5064902;28;20203;-80
2023/12/06 10:37:59;;;;;;;26.27;16.23;;;1.60;99.90;;;;;;5073220;28;20652;-80
2023/12/06 10:40:28;;;;;;;25.97;15.90;;;1.70;99.90;;;;;;5075180;28;20233;-81
2023/12/06 10:43:01;;;;;;;27.37;13.73;;;1.70;99.90;;;;;;5068895;28;20205;-80
2023/12/06 10:45:32;;;;;;;28.03;15.07;;;1.80;99.90;;;;;;5071217;28;20194;-80
2023/12/06 10:47:59;;;;;;;26.43;14.37;;;1.80;99.90;;;;;;5067993;28;20261;-80
2023/12/06 10:50:27;;;;;;;29.37;14.83;;;1.80;99.90;;;;;;5065191;28;20276;-80
2023/12/06 10:52:55;;;;;;;25.70;14.03;;;1.90;99.90;;;;;;5066514;28;20702;-80
2023/12/06 10:55:24;;;;;;;27.00;14.10;;;1.90;99.90;;;;;;5071033;28;20191;-80
2023/12/06 10:57:53;;;;;;;24.47;13.40;;;1.90;99.90;;;;;;5063412;28;20198;-80
2023/12/06 11:00:20;;;;;;;26.80;14.53;;;1.90;99.90;;;;;;5062871;28;20222;-79
2023/12/06 11:02:49;;;;;;;27.07;14.50;;;1.90;1.00;;;;;;5072770;28;20213;-80
2023/12/06 11:05:19;;;;;;;28.03;14.87;;;1.80;40.70;;;;;;5068917;28;20207;-80
2023/12/06 11:08:11;;;;;;;26.93;13.80;;;1.80;84.70;;;;;;5069126;28;20206;-80
2023/12/06 11:10:48;;;;;;;26.90;15.63;;;1.70;99.90;;;;;;5065451;28;20225;-80
2023/12/06 11:13:24;;;;;;;27.30;14.77;;;1.70;99.90;;;;;;5066142;28;20726;-80
2023/12/06 11:16:01;;;;;;;26.17;13.73;;;1.80;99.90;;;;;;5064182;28;20201;-79
2023/12/06 11:18:39;;;;;;;26.90;15.13;;;1.80;99.90;;;;;;5069937;28;20660;-80
2023/12/06 11:21:05;;;;;;;28.30;17.10;;;1.70;99.90;;;;;;5072428;28;20205;-80
2023/12/06 11:23:32;;;;;;;30.73;16.23;;;1.60;99.90;;;;;;5068902;28;20198;-80
2023/12/06 11:26:00;;;;;;;31.80;17.43;;;1.60;99.90;;;;;;5061817;28;20253;-80
2023/12/06 11:28:28;;;;;;;31.07;16.50;;;1.60;99.90;;;;;;5073178;28;20205;-80
2023/12/06 11:30:56;;;;;;;31.07;16.50;;;1.60;99.90;;;;;;5074730;28;20233;-80
2023/12/06 11:33:23;;;;;;;30.43;16.73;;;1.60;99.90;;;;;;5067801;28;20209;-80
2023/12/06 11:35:53;;;;;;;28.97;15.63;;;1.60;99.90;;;;;;5067484;28;20202;-80
2023/12/06 11:38:20;;;;;;;30.37;15.87;;;1.70;99.90;;;;;;5069202;28;20218;-80
2023/12/06 11:40:51;;;;;;;31.23;17.00;;;1.60;99.90;;;;;;5067489;28;20222;-80
2023/12/06 11:43:19;;;;;;;32.37;16.63;;;1.60;99.90;;;;;;5063891;28;20217;-80
2023/12/06 11:45:47;;;;;;;29.93;16.87;;;1.50;99.90;;;;;;5068916;28;20265;-79
2023/12/06 11:48:14;;;;;;;30.53;18.87;;;1.60;99.90;;;;;;5074890;28;20202;-79
2023/12/06 11:50:46;;;;;;;32.67;17.13;;;1.60;99.90;;;;;;5065993;28;20677;-80
2023/12/06 11:53:16;;;;;;;32.07;19.07;;;1.60;99.90;;;;;;5069116;28;20206;-79
2023/12/06 11:55:43;;;;;;;32.73;16.67;;;1.60;99.90;;;;;;5069452;28;20202;-80
2023/12/06 11:58:11;;;;;;;32.50;16.40;;;1.60;99.90;;;;;;5070855;28;20244;-80
2023/12/06 12:00:40;;;;;;;31.80;17.07;;;1.60;99.90;;;;;;5069996;28;20218;-80
2023/12/06 12:03:07;;;;;;;33.23;16.90;;;1.60;99.90;;;;;;5064318;28;20270;-80
2023/12/06 12:05:34;;;;;;;33.87;17.23;;;1.60;99.90;;;;;;5066709;28;20194;-80
2023/12/06 12:08:02;;;;;;;32.60;18.10;;;1.70;99.90;;;;;;5068008;28;20195;-81
2023/12/06 12:10:31;;;;;;;30.67;16.33;;;1.70;99.90;;;;;;5067091;28;20429;-80
2023/12/06 12:12:59;;;;;;;32.67;19.87;;;1.70;99.90;;;;;;5067698;28;20217;-80
2023/12/06 12:15:26;;;;;;;28.23;15.83;;;1.70;99.90;;;;;;5069700;28;20692;-80
2023/12/06 12:17:53;;;;;;;33.27;17.43;;;1.60;99.90;;;;;;5071483;28;20679;-79
2023/12/06 12:20:20;;;;;;;32.23;16.83;;;1.70;99.90;;;;;;5074473;28;20222;-80
2023/12/06 12:22:48;;;;;;;32.57;17.67;;;1.70;99.90;;;;;;5054375;28;20206;-80
2023/12/06 12:25:16;;;;;;;32.13;17.33;;;1.70;99.90;;;;;;5067980;28;20198;-78
2023/12/06 12:27:46;;;;;;;32.57;17.47;;;1.70;99.90;;;;;;5065560;28;20297;-80
2023/12/06 12:30:14;;;;;;;34.67;18.67;;;1.70;99.90;;;;;;5074764;28;20226;-80
2023/12/06 12:32:44;;;;;;;34.27;17.27;;;1.70;99.90;;;;;;5067060;28;20199;-80
2023/12/06 12:35:12;;;;;;;31.60;18.67;;;1.70;99.90;;;;;;5067433;28;20683;-80
2023/12/06 12:37:40;;;;;;;33.13;20.13;;;1.70;99.90;;;;;;5066700;28;20298;-81
2023/12/06 12:40:09;;;;;;;33.40;18.07;;;1.70;99.90;;;;;;5069893;28;20226;-79
2023/12/06 12:42:40;;;;;;;32.50;17.77;;;1.60;99.90;;;;;;5073306;28;20569;-79
2023/12/06 12:45:14;;;;;;;30.87;17.07;;;1.60;99.90;;;;;;5073343;28;20226;-79
2023/12/06 12:47:41;;;;;;;33.07;17.50;;;1.70;99.90;;;;;;5078332;28;20203;-79
2023/12/06 12:50:10;;;;;;;30.90;16.37;;;1.70;99.90;;;;;;5083997;28;20226;-79